首页
METAR-TAF:

METAR-TAF

机场 :

杭州萧山国际机场

杭州, 中华人民共和国

纬度: 30-14N, 经度: 120-10E, 海拔: 43米

当前天气观测

该预报发布于36分钟前的07:30 UTC
风速12节,风向北转西北,在西转西北之间变化
温度 24°C
湿度 78%
气压 1008 hPa
能见度10公里或以上
少量云层高于1000英尺
多云层高于2000英尺

METAR: ZSHC 220730Z 34006MPS 300V010 9999 FEW010 BKN020 24/20 Q1008 NOSIG

时间: 16:06 (08:06 UTC)

预报

该预报发布于5小时和3分钟前的03:03 UTC
预报有效从22日的 06点(UTC)到 23日的 06点(UTC)
风速10节,风向北转西北,有时为19节阵风
能見度: 3000
散云层高于1000英尺
多云层高于2600英尺
轻雾
短暂存在
从 22日的 06点(UTC)到 22日的 12点(UTC)
散云层高于1000英尺
多云层高于2600英尺
少量云层高于3000英尺, 积雨云.
阵雨

TAF: ZSHC 220303Z 2206/2306 33005G10MPS 3000 BR SCT010 BKN026 TX28/2206Z TN18/2221Z TEMPO 2206/2212 SHRA SCT010 BKN026 FEW030CB

超过4000个机场的气象观测和天气预报(METAR&TAF报告)。

可查询的气象台以黄色和红色小点在地图上表示。

将鼠标移到小点上方,可查看气象台名称。

然后点击查看天气观测和预报。

如需切换地图:点击带黑十字的绿色按钮放大地图;点击带横线的绿色按钮缩小地图;或者点击绿色箭头查看邻近地区的地图。


METAR-TAF: